Time;durP1;ratioP1;P1;durP2;ratioP2;P2;SDS_P1;SDS_P2;PMS_P1;PMS_P2;Temp;Humidity;BMP_temperature;BMP_pressure;BME280_temperature;BME280_humidity;BME280_pressure;Samples;Min_cycle;Max_cycle;Signal;HPM_P1;HPM_P2
2022/11/12 00:01:06;;;;;;;10.75;7.53;;;5.60;99.90;;;;;;5007865;28;20026;-80
2022/11/12 00:03:31;;;;;;;12.20;7.97;;;5.60;99.90;;;;;;5000502;28;20041;-80
2022/11/12 00:05:57;;;;;;;11.15;7.75;;;5.60;99.90;;;;;;5026688;28;20034;-81
2022/11/12 00:08:25;;;;;;;10.10;6.80;;;5.60;99.90;;;;;;5012355;28;20037;-80
2022/11/12 00:10:51;;;;;;;10.05;7.20;;;5.50;99.90;;;;;;5032653;28;20013;-80
2022/11/12 00:13:17;;;;;;;13.18;8.38;;;5.50;99.90;;;;;;5033528;28;20044;-80
2022/11/12 00:15:42;;;;;;;11.45;7.97;;;5.50;99.90;;;;;;5002306;28;20048;-81
2022/11/12 00:18:08;;;;;;;11.43;8.10;;;5.50;99.90;;;;;;4995547;28;20076;-81
2022/11/12 00:20:34;;;;;;;10.15;7.47;;;5.50;99.90;;;;;;5010400;28;20022;-81
2022/11/12 00:23:00;;;;;;;11.80;7.70;;;5.50;99.90;;;;;;4978622;28;20022;-81
2022/11/12 00:25:25;;;;;;;12.10;7.50;;;5.40;99.90;;;;;;4996585;28;20469;-81
2022/11/12 00:27:51;;;;;;;12.65;7.88;;;5.40;99.90;;;;;;4995988;28;20021;-78
2022/11/12 00:30:17;;;;;;;11.05;7.22;;;5.40;99.90;;;;;;4993609;28;20019;-79
2022/11/12 00:32:42;;;;;;;11.68;7.40;;;5.40;99.90;;;;;;5014986;28;20049;-79
2022/11/12 00:35:08;;;;;;;10.93;7.22;;;5.40;99.90;;;;;;4994096;28;20026;-79
2022/11/12 00:37:38;;;;;;;11.15;7.55;;;5.40;99.90;;;;;;4997119;28;20373;-79
2022/11/12 00:40:05;;;;;;;9.90;6.88;;;5.30;99.90;;;;;;4995543;28;20466;-79
2022/11/12 00:42:30;;;;;;;9.07;6.70;;;5.30;99.90;;;;;;4995334;28;20018;-79
2022/11/12 00:44:56;;;;;;;11.05;6.90;;;5.30;99.90;;;;;;5009661;28;20489;-79
2022/11/12 00:47:22;;;;;;;9.95;7.00;;;5.30;99.90;;;;;;4994266;28;20029;-79
2022/11/12 00:49:47;;;;;;;10.95;7.07;;;5.30;99.90;;;;;;4996414;28;20022;-79
2022/11/12 00:52:13;;;;;;;11.10;6.95;;;5.20;99.90;;;;;;5013214;28;20025;-78
2022/11/12 00:54:38;;;;;;;11.38;7.20;;;5.20;99.90;;;;;;4992438;28;20102;-78
2022/11/12 00:57:04;;;;;;;11.38;7.28;;;5.20;99.90;;;;;;4988918;28;20109;-80
2022/11/12 00:59:30;;;;;;;10.00;6.57;;;5.20;99.90;;;;;;5004352;28;20057;-79
2022/11/12 01:01:55;;;;;;;9.50;6.88;;;5.20;99.90;;;;;;5006044;28;20033;-79
2022/11/12 01:04:21;;;;;;;11.25;7.35;;;5.20;99.90;;;;;;4986478;28;20078;-78
2022/11/12 01:06:47;;;;;;;9.75;6.45;;;5.20;99.90;;;;;;5005760;28;20041;-79
2022/11/12 01:09:12;;;;;;;11.30;7.60;;;5.20;99.90;;;;;;4986052;28;20120;-79
2022/11/12 01:11:40;;;;;;;9.27;6.53;;;5.20;99.90;;;;;;5005652;28;20422;-79
2022/11/12 01:14:08;;;;;;;9.43;6.05;;;5.10;99.90;;;;;;4986878;28;20125;-79
2022/11/12 01:16:37;;;;;;;9.48;5.60;;;5.10;99.90;;;;;;5009051;28;20025;-79
2022/11/12 01:19:04;;;;;;;8.50;5.82;;;5.10;99.90;;;;;;5004672;28;20470;-79
2022/11/12 01:21:31;;;;;;;10.40;7.00;;;5.10;99.90;;;;;;5027034;28;20371;-79
2022/11/12 01:23:59;;;;;;;9.40;5.95;;;5.10;99.90;;;;;;5004616;28;20021;-79
2022/11/12 01:26:27;;;;;;;11.32;7.53;;;5.10;99.90;;;;;;5009840;28;20109;-80
2022/11/12 01:28:54;;;;;;;9.65;6.78;;;5.10;99.90;;;;;;5003668;28;20014;-79
2022/11/12 01:31:28;;;;;;;8.30;5.72;;;5.10;99.90;;;;;;5008604;28;20036;-80
2022/11/12 01:33:59;;;;;;;8.63;5.95;;;5.10;99.90;;;;;;5003979;28;20037;-80
2022/11/12 01:36:26;;;;;;;10.80;7.00;;;5.10;99.90;;;;;;5014127;28;20091;-80
2022/11/12 01:38:53;;;;;;;9.68;6.75;;;5.00;99.90;;;;;;5011129;28;20394;-79
2022/11/12 01:41:25;;;;;;;9.52;6.90;;;5.00;99.90;;;;;;5013078;28;20477;-79
2022/11/12 01:44:15;;;;;;;12.77;7.53;;;5.00;99.90;;;;;;5004912;28;20028;-79
2022/11/12 01:46:59;;;;;;;11.73;7.55;;;5.00;99.90;;;;;;5003083;28;20017;-79
2022/11/12 01:49:38;;;;;;;10.45;7.43;;;5.00;99.90;;;;;;5003160;28;20022;-79
2022/11/12 01:52:15;;;;;;;10.23;6.90;;;4.90;99.90;;;;;;5023079;28;20034;-79
2022/11/12 01:54:42;;;;;;;9.85;7.15;;;4.90;99.90;;;;;;5001787;28;20032;-79
2022/11/12 01:57:10;;;;;;;10.50;7.30;;;4.90;99.90;;;;;;5015655;28;20116;-79
2022/11/12 01:59:42;;;;;;;10.13;7.20;;;4.90;99.90;;;;;;4996998;28;20472;-79
2022/11/12 02:02:08;;;;;;;10.43;6.88;;;4.90;99.90;;;;;;5009340;28;20037;-82
2022/11/12 02:04:38;;;;;;;10.45;6.80;;;4.90;99.90;;;;;;5015549;28;20036;-79
2022/11/12 02:07:06;;;;;;;12.43;7.63;;;4.80;99.90;;;;;;5032560;28;20025;-79
2022/11/12 02:09:33;;;;;;;9.52;6.93;;;4.80;99.90;;;;;;5003669;28;20033;-79
2022/11/12 02:11:59;;;;;;;10.43;7.72;;;4.80;99.90;;;;;;5018699;28;20021;-79
2022/11/12 02:14:25;;;;;;;9.30;6.65;;;4.80;99.90;;;;;;4996155;28;20049;-79
2022/11/12 02:16:52;;;;;;;9.65;6.90;;;4.80;99.90;;;;;;5013325;28;20377;-79
2022/11/12 02:19:18;;;;;;;11.85;7.20;;;4.70;99.90;;;;;;5020072;28;20013;-79
2022/11/12 02:21:44;;;;;;;10.43;6.65;;;4.80;99.90;;;;;;5031943;28;20083;-79
2022/11/12 02:24:12;;;;;;;11.07;7.60;;;4.80;99.90;;;;;;5025385;28;20026;-79
2022/11/12 02:26:43;;;;;;;10.48;6.32;;;4.80;99.90;;;;;;5012119;28;20462;-79
2022/11/12 02:29:09;;;;;;;13.23;6.72;;;4.70;99.90;;;;;;5020848;28;20036;-80
2022/11/12 02:31:35;;;;;;;8.65;6.18;;;4.70;99.90;;;;;;5018296;28;20034;-79
2022/11/12 02:34:01;;;;;;;9.45;6.90;;;4.70;99.90;;;;;;5012670;28;20532;-79
2022/11/12 02:36:28;;;;;;;10.00;7.15;;;4.70;99.90;;;;;;5013120;28;20036;-79
2022/11/12 02:38:54;;;;;;;10.57;7.25;;;4.60;99.90;;;;;;5021234;28;20010;-79
2022/11/12 02:41:20;;;;;;;12.50;7.43;;;4.60;99.90;;;;;;5028184;28;20025;-79
2022/11/12 02:43:46;;;;;;;10.43;7.10;;;4.60;99.90;;;;;;5016853;28;20029;-79
2022/11/12 02:46:12;;;;;;;10.98;7.13;;;4.60;99.90;;;;;;5023855;28;20013;-79
2022/11/12 02:48:37;;;;;;;11.45;6.82;;;4.60;99.90;;;;;;5026943;28;20064;-80
2022/11/12 02:51:04;;;;;;;8.85;5.65;;;4.60;99.90;;;;;;5031941;28;20053;-79
2022/11/12 02:53:31;;;;;;;11.32;7.47;;;4.60;99.90;;;;;;5022138;28;20029;-80
2022/11/12 02:55:57;;;;;;;10.63;7.15;;;4.60;99.90;;;;;;5018558;28;20076;-79
2022/11/12 02:58:23;;;;;;;11.82;7.05;;;4.60;99.90;;;;;;5031052;28;20021;-79
2022/11/12 03:00:49;;;;;;;9.35;5.80;;;4.60;99.90;;;;;;5028908;28;20136;-80
2022/11/12 03:03:14;;;;;;;9.63;6.70;;;4.60;99.90;;;;;;5028981;28;20030;-80
2022/11/12 03:05:40;;;;;;;9.75;6.55;;;4.50;99.90;;;;;;5031272;28;20030;-80
2022/11/12 03:08:07;;;;;;;10.10;6.85;;;4.50;99.90;;;;;;5031211;28;20104;-80
2022/11/12 03:10:36;;;;;;;11.05;6.82;;;4.50;99.90;;;;;;5031347;28;20052;-79
2022/11/12 03:13:02;;;;;;;9.25;6.70;;;4.50;99.90;;;;;;5030694;28;20120;-79
2022/11/12 03:15:29;;;;;;;10.07;5.97;;;4.50;99.90;;;;;;5032173;28;20045;-80
2022/11/12 03:17:56;;;;;;;10.15;6.32;;;4.50;99.90;;;;;;5013956;28;20377;-79
2022/11/12 03:20:22;;;;;;;10.18;6.38;;;4.50;99.90;;;;;;5026986;28;20069;-79
2022/11/12 03:23:01;;;;;;;9.45;6.07;;;4.40;99.90;;;;;;5025666;28;20033;-79
2022/11/12 03:25:27;;;;;;;9.32;6.53;;;4.40;99.90;;;;;;5002766;28;20041;-79
2022/11/12 03:28:01;;;;;;;11.55;7.82;;;4.40;99.90;;;;;;5014519;28;20044;-80
2022/11/12 03:30:29;;;;;;;8.63;6.05;;;4.40;99.90;;;;;;5014444;28;20063;-79
2022/11/12 03:32:55;;;;;;;11.40;7.10;;;4.40;99.90;;;;;;5013838;28;20124;-79
2022/11/12 03:35:21;;;;;;;10.57;6.88;;;4.40;99.90;;;;;;5023580;28;20061;-80
2022/11/12 03:37:47;;;;;;;9.13;6.25;;;4.40;99.90;;;;;;5010541;28;20028;-79
2022/11/12 03:40:12;;;;;;;9.63;6.13;;;4.30;99.90;;;;;;5014864;28;20018;-80
2022/11/12 03:42:43;;;;;;;8.82;5.93;;;4.40;99.90;;;;;;5014374;28;20406;-80
2022/11/12 03:45:08;;;;;;;9.32;6.55;;;4.40;99.90;;;;;;5014323;28;20121;-80
2022/11/12 03:47:34;;;;;;;8.80;6.00;;;4.40;99.90;;;;;;5032279;28;20465;-79
2022/11/12 03:50:00;;;;;;;10.52;6.43;;;4.40;99.90;;;;;;5017804;28;20021;-80
2022/11/12 03:52:26;;;;;;;9.30;5.65;;;4.40;99.90;;;;;;5016725;28;20036;-80
2022/11/12 03:54:51;;;;;;;8.55;5.80;;;4.30;99.90;;;;;;5026888;28;20022;-80
2022/11/12 03:57:17;;;;;;;11.65;7.47;;;4.30;99.90;;;;;;5011451;28;20025;-80
2022/11/12 03:59:43;;;;;;;10.02;6.22;;;4.30;99.90;;;;;;4998833;28;20076;-80
2022/11/12 04:02:13;;;;;;;9.00;5.93;;;4.30;99.90;;;;;;5016450;28;20026;-80
2022/11/12 04:10:07;;;;;;;9.80;5.97;;;4.30;99.90;;;;;;5016910;28;20044;-80
2022/11/12 04:15:17;;;;;;;9.63;6.78;;;4.30;99.90;;;;;;5019460;28;20060;-80
2022/11/12 04:21:49;;;;;;;9.18;6.43;;;4.30;99.90;;;;;;5028878;28;20508;-80
2022/11/12 04:23:30;;;;;;;8.40;5.85;;;4.20;99.90;;;;;;5015383;28;20057;-80
2022/11/12 04:30:14;;;;;;;9.13;6.05;;;4.20;99.90;;;;;;5022887;28;20056;-79
2022/11/12 04:31:25;;;;;;;8.90;5.75;;;4.20;99.90;;;;;;5018364;28;20034;-79
2022/11/12 04:33:51;;;;;;;8.18;5.45;;;4.20;99.90;;;;;;4997989;28;20470;-80
2022/11/12 04:36:16;;;;;;;8.25;5.53;;;4.20;99.90;;;;;;5016642;28;20021;-80
2022/11/12 04:38:42;;;;;;;9.05;5.75;;;4.20;99.90;;;;;;5034552;28;20021;-80
2022/11/12 04:46:36;;;;;;;9.60;5.95;;;4.10;99.90;;;;;;5034987;28;20052;-79
2022/11/12 04:49:01;;;;;;;11.25;6.47;;;4.10;99.90;;;;;;5002239;28;20029;-80
2022/11/12 04:54:11;;;;;;;9.15;5.47;;;4.10;99.90;;;;;;5032683;28;20045;-80
2022/11/12 04:56:37;;;;;;;8.10;5.10;;;4.10;99.90;;;;;;5016771;28;20018;-80
2022/11/12 04:59:02;;;;;;;7.88;5.25;;;4.10;99.90;;;;;;5012878;28;20010;-79
2022/11/12 05:01:28;;;;;;;7.18;4.97;;;4.10;99.90;;;;;;4997409;28;20018;-79
2022/11/12 05:03:53;;;;;;;8.23;5.95;;;4.00;99.90;;;;;;5018182;28;20036;-80
2022/11/12 05:09:03;;;;;;;11.50;6.10;;;4.00;99.90;;;;;;5033188;28;20125;-80
2022/11/12 05:11:29;;;;;;;9.02;6.07;;;4.00;99.90;;;;;;5000111;28;20108;-80
2022/11/12 05:13:54;;;;;;;8.82;5.63;;;4.00;99.90;;;;;;5010770;28;20108;-80
2022/11/12 05:16:20;;;;;;;8.63;5.47;;;4.00;99.90;;;;;;5024850;28;20095;-80
2022/11/12 05:18:46;;;;;;;8.32;5.30;;;3.90;99.90;;;;;;5016030;28;20026;-80
2022/11/12 05:23:55;;;;;;;10.18;5.93;;;4.00;99.90;;;;;;5022108;28;20032;-80
2022/11/12 05:26:21;;;;;;;9.85;5.60;;;4.00;99.90;;;;;;5019090;28;20123;-80
2022/11/12 05:28:47;;;;;;;8.25;5.50;;;4.00;99.90;;;;;;5014445;28;20068;-80
2022/11/12 05:31:12;;;;;;;8.68;5.55;;;3.90;99.90;;;;;;5026367;28;20029;-81
2022/11/12 05:33:38;;;;;;;7.68;5.13;;;4.00;99.90;;;;;;5021833;28;20064;-79
2022/11/12 05:36:04;;;;;;;8.35;5.38;;;4.00;99.90;;;;;;5031646;28;20024;-79
2022/11/12 05:38:29;;;;;;;8.43;5.72;;;3.90;99.90;;;;;;5012922;28;20029;-80
2022/11/12 05:40:55;;;;;;;10.63;6.63;;;3.90;99.90;;;;;;5025879;28;20448;-80
2022/11/12 05:43:21;;;;;;;9.52;6.25;;;3.90;99.90;;;;;;5013880;28;20375;-80
2022/11/12 05:45:46;;;;;;;9.13;6.10;;;3.90;99.90;;;;;;5013068;28;20140;-79
2022/11/12 05:48:12;;;;;;;10.05;6.22;;;3.90;99.90;;;;;;5013962;28;20025;-80
2022/11/12 05:50:37;;;;;;;8.15;5.47;;;3.90;99.90;;;;;;5026066;28;20033;-80
2022/11/12 05:53:03;;;;;;;7.95;5.18;;;3.80;99.90;;;;;;5019851;28;20038;-79
2022/11/12 05:55:30;;;;;;;10.02;6.03;;;3.80;99.90;;;;;;5019741;28;20026;-80
2022/11/12 05:57:55;;;;;;;7.70;4.97;;;3.80;99.90;;;;;;5032145;28;20029;-79
2022/11/12 06:00:21;;;;;;;8.63;5.40;;;3.80;99.90;;;;;;5031005;28;20473;-79
2022/11/12 06:02:47;;;;;;;8.20;5.32;;;3.80;99.90;;;;;;5014263;28;20462;-79
2022/11/12 06:05:12;;;;;;;7.95;5.53;;;3.80;99.90;;;;;;5013977;28;20045;-80
2022/11/12 06:07:38;;;;;;;8.23;5.28;;;3.80;99.90;;;;;;5019449;28;20037;-79
2022/11/12 06:10:04;;;;;;;7.97;5.22;;;3.90;99.90;;;;;;5031101;28;20063;-79
2022/11/12 06:12:30;;;;;;;9.98;5.75;;;3.80;99.90;;;;;;5013850;28;20044;-79
2022/11/12 06:14:56;;;;;;;9.05;5.47;;;3.80;99.90;;;;;;5012277;28;20073;-79
2022/11/12 06:17:21;;;;;;;7.55;5.18;;;3.80;99.90;;;;;;5014111;28;20017;-79
2022/11/12 06:19:47;;;;;;;9.10;5.82;;;3.80;99.90;;;;;;5026146;28;20028;-79
2022/11/12 06:22:13;;;;;;;8.40;5.78;;;3.80;99.90;;;;;;5031668;28;20547;-79
2022/11/12 06:24:38;;;;;;;9.05;5.40;;;3.70;99.90;;;;;;5031165;28;20401;-79
2022/11/12 06:27:04;;;;;;;9.57;5.72;;;3.80;99.90;;;;;;5019387;28;20048;-79
2022/11/12 06:29:30;;;;;;;9.55;5.10;;;3.80;99.90;;;;;;5018373;28;20026;-79
2022/11/12 06:31:55;;;;;;;7.97;5.10;;;3.80;99.90;;;;;;5014172;28;20050;-79
2022/11/12 06:34:21;;;;;;;7.97;4.85;;;3.80;99.90;;;;;;5025811;28;20411;-80
2022/11/12 06:36:47;;;;;;;8.63;5.22;;;3.80;99.90;;;;;;5020080;28;20026;-79
2022/11/12 06:39:13;;;;;;;9.02;5.32;;;3.80;99.90;;;;;;5019019;28;20564;-79
2022/11/12 06:41:47;;;;;;;7.35;4.80;;;3.80;99.90;;;;;;5013872;28;20030;-79
2022/11/12 06:44:13;;;;;;;10.00;5.13;;;3.80;99.90;;;;;;5025510;28;20087;-80
2022/11/12 06:46:39;;;;;;;8.90;5.75;;;3.80;99.90;;;;;;5012173;28;20022;-78
2022/11/12 06:49:05;;;;;;;8.13;4.60;;;3.80;99.90;;;;;;5025169;28;20030;-79
2022/11/12 06:51:31;;;;;;;6.50;4.65;;;3.80;99.90;;;;;;5021001;28;20362;-78
2022/11/12 06:53:56;;;;;;;9.95;5.20;;;3.80;99.90;;;;;;5030218;28;20033;-78
2022/11/12 06:56:22;;;;;;;8.85;5.35;;;3.80;99.90;;;;;;5020463;28;20027;-78
2022/11/12 06:58:48;;;;;;;7.05;5.18;;;3.80;99.90;;;;;;5031887;28;20018;-78
2022/11/12 07:01:16;;;;;;;6.88;5.10;;;3.80;99.90;;;;;;5031500;28;20535;-79
2022/11/12 07:03:43;;;;;;;8.35;4.93;;;3.80;99.90;;;;;;5030489;28;20029;-80
2022/11/12 07:06:11;;;;;;;6.85;4.93;;;3.80;99.90;;;;;;5031239;28;20064;-79
2022/11/12 07:08:37;;;;;;;9.55;5.68;;;3.80;99.90;;;;;;5030388;28;20022;-79
2022/11/12 07:11:04;;;;;;;7.68;4.80;;;3.90;99.90;;;;;;5030958;28;20576;-79
2022/11/12 07:13:32;;;;;;;7.38;4.85;;;3.90;99.90;;;;;;5028589;28;20039;-79
2022/11/12 07:15:59;;;;;;;7.00;4.40;;;3.90;99.90;;;;;;5020499;28;20102;-80
2022/11/12 07:18:26;;;;;;;7.35;5.10;;;3.90;99.90;;;;;;5030924;28;20117;-79
2022/11/12 07:20:58;;;;;;;8.52;5.50;;;3.90;99.90;;;;;;5031528;28;20021;-79
2022/11/12 07:23:24;;;;;;;7.60;5.28;;;3.90;99.90;;;;;;5034364;28;20032;-79
2022/11/12 07:26:05;;;;;;;7.63;5.43;;;3.90;99.90;;;;;;5034581;28;20024;-79
2022/11/12 07:28:32;;;;;;;7.40;5.10;;;3.90;99.90;;;;;;5034767;28;20017;-80
2022/11/12 07:31:05;;;;;;;8.15;5.45;;;4.00;99.90;;;;;;5034378;28;20017;-79
2022/11/12 07:33:32;;;;;;;8.43;5.20;;;4.00;99.90;;;;;;5033131;28;20103;-79
2022/11/12 07:36:06;;;;;;;7.38;5.10;;;4.00;99.90;;;;;;5033792;28;20022;-80
2022/11/12 07:38:37;;;;;;;8.35;5.85;;;4.10;99.90;;;;;;5022196;28;20021;-81
2022/11/12 07:41:09;;;;;;;8.52;5.53;;;4.10;99.90;;;;;;5031144;28;20476;-79
2022/11/12 07:43:36;;;;;;;8.98;5.50;;;4.20;99.90;;;;;;5032834;28;20468;-79
2022/11/12 07:46:08;;;;;;;7.40;5.38;;;4.20;99.90;;;;;;5031207;28;20041;-79
2022/11/12 07:48:34;;;;;;;9.23;5.72;;;4.30;99.90;;;;;;5032504;28;20030;-79
2022/11/12 07:51:00;;;;;;;7.95;5.57;;;4.30;99.90;;;;;;5031746;28;20013;-80
2022/11/12 07:53:26;;;;;;;7.38;5.63;;;4.40;99.90;;;;;;5031354;28;20111;-80
2022/11/12 07:55:58;;;;;;;8.43;5.13;;;4.40;99.90;;;;;;5033076;28;20025;-80
2022/11/12 07:58:30;;;;;;;7.85;5.25;;;4.50;99.90;;;;;;5028977;28;20375;-80
2022/11/12 08:00:57;;;;;;;8.63;5.37;;;4.50;99.90;;;;;;5031085;28;20350;-80
2022/11/12 08:03:23;;;;;;;6.25;4.38;;;4.60;99.90;;;;;;5033431;28;20280;-81
2022/11/12 08:05:49;;;;;;;6.97;4.80;;;4.60;99.90;;;;;;5028144;28;20116;-79
2022/11/12 08:08:18;;;;;;;6.50;4.75;;;4.70;99.90;;;;;;5030479;28;20109;-79
2022/11/12 08:10:46;;;;;;;7.03;4.90;;;4.70;99.90;;;;;;5033775;28;20025;-81
2022/11/12 08:13:12;;;;;;;8.20;4.72;;;4.80;99.90;;;;;;5031131;28;20103;-82
2022/11/12 08:15:38;;;;;;;7.20;4.50;;;4.90;99.90;;;;;;5007899;28;20560;-81
2022/11/12 08:18:04;;;;;;;7.55;3.83;;;5.00;99.90;;;;;;4990149;28;20038;-80
2022/11/12 08:20:31;;;;;;;8.27;5.25;;;5.10;99.90;;;;;;4990022;28;20030;-81
2022/11/12 08:23:00;;;;;;;6.40;4.57;;;5.20;99.90;;;;;;4985429;28;20049;-80
2022/11/12 08:25:29;;;;;;;6.20;4.38;;;5.30;99.90;;;;;;4987073;28;20482;-81
2022/11/12 08:27:58;;;;;;;6.53;4.50;;;5.40;99.90;;;;;;5013192;28;20026;-80
2022/11/12 08:30:26;;;;;;;6.65;4.10;;;5.60;99.90;;;;;;5013735;28;20029;-81
2022/11/12 08:33:03;;;;;;;7.00;4.28;;;5.70;99.90;;;;;;4994113;28;20096;-80
2022/11/12 08:35:30;;;;;;;5.40;3.80;;;5.90;99.90;;;;;;4994257;28;20483;-82
2022/11/12 08:38:02;;;;;;;6.43;4.10;;;6.10;99.90;;;;;;4994941;28;20014;-80
2022/11/12 08:40:30;;;;;;;6.43;4.18;;;6.20;99.90;;;;;;5014156;28;20101;-80
2022/11/12 08:43:02;;;;;;;6.03;4.05;;;6.40;99.90;;;;;;4996311;28;20056;-80
2022/11/12 08:45:30;;;;;;;5.35;3.85;;;6.50;99.90;;;;;;4997380;28;20113;-80
2022/11/12 08:48:06;;;;;;;6.88;4.65;;;6.70;99.90;;;;;;4995228;28;20022;-79
2022/11/12 08:50:33;;;;;;;7.35;4.78;;;7.40;99.90;;;;;;4997125;28;20117;-80
2022/11/12 08:53:01;;;;;;;7.53;4.85;;;8.60;99.90;;;;;;4996403;28;20026;-80
2022/11/12 08:55:30;;;;;;;5.38;4.05;;;10.20;99.90;;;;;;4996995;28;20022;-80
2022/11/12 08:58:00;;;;;;;5.90;3.78;;;11.50;99.90;;;;;;4996713;28;20478;-80
2022/11/12 09:00:31;;;;;;;5.07;3.50;;;12.60;99.90;;;;;;4996156;28;20022;-80
2022/11/12 09:03:01;;;;;;;5.28;3.40;;;13.50;99.90;;;;;;4987894;28;20022;-80
2022/11/12 09:05:27;;;;;;;5.97;3.65;;;14.40;99.90;;;;;;4993060;28;20018;-80
2022/11/12 09:08:08;;;;;;;6.65;3.55;;;15.10;99.90;;;;;;4996964;28;20644;-80
2022/11/12 09:10:38;;;;;;;6.05;3.53;;;15.80;99.90;;;;;;4996365;28;20117;-81
2022/11/12 09:13:05;;;;;;;6.45;4.10;;;16.50;99.90;;;;;;5014111;28;20081;-81
2022/11/12 09:15:31;;;;;;;5.70;3.55;;;17.00;99.90;;;;;;5025706;28;20045;-81
2022/11/12 09:17:59;;;;;;;4.63;3.28;;;17.40;99.90;;;;;;5015902;28;20443;-81
2022/11/12 09:20:29;;;;;;;6.00;3.58;;;17.80;99.90;;;;;;5014656;28;20108;-81
2022/11/12 09:23:13;;;;;;;5.55;3.53;;;18.20;99.90;;;;;;5015350;28;20036;-81
2022/11/12 09:25:40;;;;;;;5.13;3.55;;;18.60;99.90;;;;;;5005308;28;20412;-81
2022/11/12 09:28:15;;;;;;;4.90;3.17;;;18.90;99.90;;;;;;5015414;28;20397;-81
2022/11/12 09:30:48;;;;;;;5.25;3.60;;;18.90;99.90;;;;;;5015405;28;20025;-81
2022/11/12 09:33:23;;;;;;;6.03;3.40;;;19.10;99.90;;;;;;5032699;28;20045;-81
2022/11/12 09:35:50;;;;;;;5.85;3.67;;;19.30;99.90;;;;;;5015548;28;20074;-80
2022/11/12 09:38:17;;;;;;;5.57;3.45;;;19.60;99.90;;;;;;5015054;28;20021;-81
2022/11/12 09:40:49;;;;;;;5.22;3.13;;;20.00;99.90;;;;;;5015259;28;20116;-82
2022/11/12 09:43:27;;;;;;;5.20;3.50;;;20.40;99.90;;;;;;5009229;28;20485;-82
2022/11/12 09:45:55;;;;;;;4.72;2.72;;;20.80;99.90;;;;;;5009617;28;20104;-81
2022/11/12 09:48:31;;;;;;;5.03;2.97;;;21.30;99.90;;;;;;5028234;28;20488;-82
2022/11/12 09:51:08;;;;;;;5.78;3.47;;;21.80;99.90;;;;;;5025485;28;20065;-79
2022/11/12 09:53:48;;;;;;;4.95;3.10;;;22.20;99.90;;;;;;5014987;28;20120;-80
2022/11/12 09:56:21;;;;;;;6.07;3.35;;;22.30;99.90;;;;;;5013585;28;20056;-80
2022/11/12 09:58:48;;;;;;;5.40;3.28;;;22.30;99.90;;;;;;5009152;28;20088;-80
2022/11/12 10:01:35;;;;;;;5.75;3.17;;;22.30;99.90;;;;;;4996048;28;20128;-79
2022/11/12 10:04:28;;;;;;;5.68;3.55;;;22.70;99.90;;;;;;4995369;28;20040;-80
2022/11/12 10:07:12;;;;;;;5.45;2.90;;;23.00;99.90;;;;;;5014708;28;20026;-79
2022/11/12 10:09:47;;;;;;;4.95;3.20;;;23.30;99.90;;;;;;5004951;28;20160;-80
2022/11/12 10:12:31;;;;;;;5.30;3.10;;;23.30;99.90;;;;;;5030556;28;20026;-81
2022/11/12 10:18:16;;;;;;;5.40;2.72;;;23.20;99.90;;;;;;5029690;28;20054;-80
2022/11/12 10:20:48;;;;;;;4.72;3.53;;;23.30;99.90;;;;;;5028793;28;20025;-80
2022/11/12 10:23:48;;;;;;;4.78;2.95;;;23.30;99.90;;;;;;5029798;28;20086;-80
2022/11/12 10:26:25;;;;;;;5.45;3.40;;;23.30;99.90;;;;;;5029270;28;20065;-81
2022/11/12 10:29:21;;;;;;;5.10;3.45;;;23.30;99.90;;;;;;5030071;28;20026;-80
2022/11/12 10:31:47;;;;;;;5.22;3.20;;;23.30;99.90;;;;;;5028254;28;20021;-80
2022/11/12 10:34:13;;;;;;;5.75;3.53;;;23.40;99.90;;;;;;5028422;28;20037;-80
2022/11/12 10:36:49;;;;;;;4.70;2.67;;;23.60;99.90;;;;;;5028436;28;20030;-81
2022/11/12 10:39:33;;;;;;;4.35;3.10;;;23.70;99.90;;;;;;5029847;28;20030;-81
2022/11/12 10:42:11;;;;;;;4.88;3.00;;;23.70;99.90;;;;;;5042643;28;20124;-83
2022/11/12 10:44:39;;;;;;;5.20;3.20;;;23.90;99.90;;;;;;5029803;28;20032;-81
2022/11/12 10:47:26;;;;;;;5.70;2.90;;;23.90;99.90;;;;;;5029540;28;20113;-81
2022/11/12 10:50:06;;;;;;;4.80;3.05;;;24.20;99.90;;;;;;5029136;28;20056;-80
2022/11/12 10:52:36;;;;;;;5.15;3.15;;;24.30;99.90;;;;;;5028705;28;20113;-81
2022/11/12 10:55:25;;;;;;;4.57;3.40;;;24.30;99.90;;;;;;5030961;28;20108;-82
2022/11/12 10:58:06;;;;;;;4.32;3.10;;;24.60;99.90;;;;;;5021612;28;20025;-82
2022/11/12 11:00:33;;;;;;;4.95;3.20;;;24.70;99.90;;;;;;5034027;28;20020;-82
2022/11/12 11:03:15;;;;;;;4.97;3.30;;;24.70;99.90;;;;;;5035644;28;20025;-82
2022/11/12 11:05:55;;;;;;;4.43;3.07;;;24.80;99.90;;;;;;5033243;28;20101;-82
2022/11/12 11:09:16;;;;;;;5.15;3.15;;;24.80;99.90;;;;;;5032340;28;20124;-82
2022/11/12 11:11:55;;;;;;;5.47;3.10;;;24.60;99.90;;;;;;4957105;28;20473;-83
2022/11/12 11:14:37;;;;;;;4.80;3.10;;;24.50;99.90;;;;;;5021445;28;20045;-82
2022/11/12 11:17:07;;;;;;;3.63;2.50;;;24.70;99.90;;;;;;5016301;28;20116;-80
2022/11/12 11:19:52;;;;;;;4.28;2.78;;;24.80;99.90;;;;;;5033149;28;20053;-79
2022/11/12 11:22:38;;;;;;;5.22;2.42;;;25.00;99.90;;;;;;5011323;28;20103;-80
2022/11/12 11:25:19;;;;;;;6.07;2.72;;;25.20;99.90;;;;;;5030496;28;20117;-81
2022/11/12 11:28:07;;;;;;;4.88;3.03;;;25.10;99.90;;;;;;5016964;28;20032;-81
2022/11/12 11:31:20;;;;;;;4.10;2.45;;;24.80;99.90;;;;;;5010206;28;20018;-85
2022/11/12 11:33:56;;;;;;;3.55;2.35;;;24.20;99.90;;;;;;5010006;28;20038;-81
2022/11/12 11:36:53;;;;;;;3.92;2.78;;;24.20;99.90;;;;;;5025327;28;20056;-81
2022/11/12 11:39:47;;;;;;;4.03;2.53;;;24.50;99.90;;;;;;5012911;28;20509;-81
2022/11/12 11:42:41;;;;;;;4.13;2.75;;;25.00;99.90;;;;;;5012155;28;20140;-82
2022/11/12 11:45:32;;;;;;;3.88;2.75;;;25.60;99.90;;;;;;5012151;28;20160;-82
2022/11/12 11:48:18;;;;;;;4.90;2.53;;;25.90;99.90;;;;;;5013382;28;20436;-81
2022/11/12 11:51:28;;;;;;;2.85;2.03;;;26.10;99.80;;;;;;5014120;28;20032;-81
2022/11/12 11:54:11;;;;;;;3.78;2.60;;;26.40;99.70;;;;;;5012995;28;20061;-81
2022/11/12 11:56:48;;;;;;;4.38;2.50;;;26.70;99.30;;;;;;5013762;28;20036;-81
2022/11/12 11:59:29;;;;;;;4.15;2.38;;;26.60;99.40;;;;;;5013489;28;20022;-80
2022/11/12 12:02:32;;;;;;;3.10;2.20;;;26.30;99.10;;;;;;5033628;28;20030;-80
2022/11/12 12:05:28;;;;;;;3.35;2.25;;;25.60;99.20;;;;;;5031714;28;20067;-82
2022/11/12 12:08:38;;;;;;;3.08;2.28;;;24.40;99.90;;;;;;5015110;28;20124;-82
2022/11/12 12:11:18;;;;;;;3.47;2.25;;;23.10;99.90;;;;;;5015954;28;20079;-81
2022/11/12 12:14:13;;;;;;;3.70;2.53;;;21.80;99.90;;;;;;5013010;28;20038;-80
2022/11/12 12:17:06;;;;;;;3.58;2.58;;;21.00;99.90;;;;;;5010915;28;20041;-82
2022/11/12 12:20:05;;;;;;;3.45;2.50;;;20.40;99.90;;;;;;5014528;28;20021;-82
2022/11/12 12:23:04;;;;;;;4.45;2.40;;;19.80;99.90;;;;;;4964194;28;20025;-81
2022/11/12 12:25:48;;;;;;;3.55;2.42;;;19.50;99.90;;;;;;4919734;28;20035;-85
2022/11/12 12:28:31;;;;;;;3.63;2.60;;;19.20;99.90;;;;;;4996122;28;20072;-82
2022/11/12 12:31:10;;;;;;;4.90;2.75;;;19.10;99.90;;;;;;5008378;28;20029;-82
2022/11/12 12:33:57;;;;;;;4.70;2.90;;;18.90;99.90;;;;;;5005941;28;20093;-83
2022/11/12 12:36:39;;;;;;;4.43;2.25;;;19.30;99.90;;;;;;5002351;28;20080;-80
2022/11/12 12:39:37;;;;;;;3.17;2.28;;;20.50;99.90;;;;;;5007755;28;20030;-82
2022/11/12 12:42:14;;;;;;;3.60;2.08;;;21.80;99.90;;;;;;5006592;28;20022;-84
2022/11/12 12:47:51;;;;;;;2.58;1.85;;;23.80;99.90;;;;;;5020654;28;20037;-82
2022/11/12 12:50:24;;;;;;;3.88;2.25;;;24.40;99.90;;;;;;5023009;28;20041;-82
2022/11/12 12:53:17;;;;;;;3.70;2.25;;;24.80;99.90;;;;;;5005457;28;20052;-82
2022/11/12 12:55:51;;;;;;;3.90;2.00;;;25.30;99.90;;;;;;5004564;28;20091;-83
2022/11/12 12:58:27;;;;;;;4.13;2.03;;;25.70;99.90;;;;;;5005770;28;20119;-82
2022/11/12 13:01:06;;;;;;;2.97;2.03;;;25.80;99.90;;;;;;5006174;28;20025;-83
2022/11/12 13:03:48;;;;;;;3.05;2.03;;;25.70;99.90;;;;;;5007981;28;20037;-83
2022/11/12 13:06:38;;;;;;;2.75;2.10;;;25.70;99.90;;;;;;5007354;28;20030;-82
2022/11/12 13:09:16;;;;;;;2.95;2.22;;;25.80;99.90;;;;;;5004219;28;20041;-82
2022/11/12 13:14:37;;;;;;;3.90;2.15;;;26.00;99.90;;;;;;5026235;28;20566;-82
2022/11/12 13:17:07;;;;;;;4.13;2.50;;;26.10;99.90;;;;;;5008977;28;20107;-83
2022/11/12 13:19:55;;;;;;;3.53;2.20;;;26.10;99.90;;;;;;5007847;28;20040;-83
2022/11/12 13:22:22;;;;;;;3.88;2.17;;;26.00;99.90;;;;;;5004092;28;20120;-81
2022/11/12 13:25:10;;;;;;;3.55;2.22;;;25.90;99.90;;;;;;5022032;28;20108;-82
2022/11/12 13:27:43;;;;;;;3.17;2.40;;;25.80;99.90;;;;;;5022495;28;20041;-81
2022/11/12 13:30:21;;;;;;;3.67;2.10;;;25.60;99.90;;;;;;5026790;28;20029;-83
2022/11/12 13:32:49;;;;;;;4.35;2.60;;;25.30;99.90;;;;;;5007654;28;20017;-82
2022/11/12 13:35:21;;;;;;;2.97;2.42;;;24.50;99.90;;;;;;5006763;28;20029;-82
2022/11/12 13:38:10;;;;;;;3.85;1.95;;;23.40;99.90;;;;;;5004575;28;20025;-82
2022/11/12 13:40:56;;;;;;;3.33;1.80;;;22.10;99.90;;;;;;5023868;28;20334;-82
2022/11/12 13:43:46;;;;;;;3.30;2.35;;;21.00;99.90;;;;;;5005118;28;20018;-82
2022/11/12 13:46:31;;;;;;;2.85;1.98;;;20.00;99.90;;;;;;5005205;28;20036;-83
2022/11/12 13:49:10;;;;;;;4.05;2.28;;;19.40;99.90;;;;;;5006213;28;20132;-82
2022/11/12 13:51:51;;;;;;;3.83;2.50;;;18.80;99.90;;;;;;5006477;28;20014;-82